createdAt,value
2019-05-23T00:03:45.609Z,9.73
2019-05-23T00:09:08.564Z,8.37
2019-05-23T00:14:30.655Z,6.27
2019-05-23T00:19:33.564Z,8.47
2019-05-23T00:24:38.401Z,9.40
2019-05-23T00:29:43.687Z,8.30
2019-05-23T00:34:48.375Z,9.27
2019-05-23T00:39:52.628Z,9.40
2019-05-23T00:44:57.190Z,9.30
2019-05-23T00:50:01.576Z,8.43
2019-05-23T00:55:05.620Z,12.40
2019-05-23T01:00:12.198Z,10.03
2019-05-23T01:05:15.660Z,8.90
2019-05-23T01:10:18.805Z,8.33
2019-05-23T01:15:23.865Z,8.03
2019-05-23T01:20:35.709Z,13.67
2019-05-23T01:25:39.352Z,11.37
2019-05-23T01:30:45.475Z,11.10
2019-05-23T01:35:48.322Z,7.70
2019-05-23T01:40:51.015Z,9.53
2019-05-23T01:45:55.256Z,14.87
2019-05-23T01:50:58.000Z,11.93
2019-05-23T01:56:01.394Z,6.77
2019-05-23T02:01:04.186Z,9.70
2019-05-23T02:06:09.671Z,8.67
2019-05-23T02:11:14.255Z,7.70
2019-05-23T02:16:18.646Z,9.23
2019-05-23T02:21:21.730Z,11.00
2019-05-23T02:26:26.162Z,10.20
2019-05-23T02:31:29.254Z,8.93
2019-05-23T02:36:33.339Z,13.73
2019-05-23T02:41:55.210Z,11.90
2019-05-23T02:47:24.562Z,6.43
2019-05-23T02:52:38.653Z,9.23
2019-05-23T02:57:42.813Z,12.07
2019-05-23T03:02:51.006Z,9.23
2019-05-23T03:07:58.764Z,10.67
2019-05-23T03:13:04.708Z,9.93
2019-05-23T03:18:10.219Z,9.57
2019-05-23T03:23:14.851Z,10.97
2019-05-23T03:28:18.602Z,12.03
2019-05-23T03:33:22.952Z,11.97
2019-05-23T03:38:27.581Z,9.27
2019-05-23T03:43:31.351Z,12.03
2019-05-23T03:48:34.143Z,12.33
2019-05-23T03:53:38.224Z,12.67
2019-05-23T03:58:40.684Z,13.60
2019-05-23T04:03:46.845Z,9.83
2019-05-23T04:08:49.876Z,11.43
2019-05-23T04:13:52.794Z,15.53
2019-05-23T04:18:56.213Z,10.77
2019-05-23T04:23:59.269Z,10.63
2019-05-23T04:29:02.541Z,8.57
2019-05-23T04:34:05.433Z,10.10
2019-05-23T04:39:08.937Z,11.60
2019-05-23T04:44:12.719Z,16.80
2019-05-23T04:49:15.553Z,10.87
2019-05-23T04:54:18.275Z,9.97
2019-05-23T04:59:23.615Z,14.30
2019-05-23T05:04:26.605Z,12.10
2019-05-23T05:09:32.487Z,10.87
2019-05-23T05:14:36.403Z,14.70
2019-05-23T05:19:39.400Z,12.57
2019-05-23T05:24:42.499Z,11.57
2019-05-23T05:29:44.927Z,10.03
2019-05-23T05:34:48.259Z,12.13
2019-05-23T05:39:51.000Z,9.83
2019-05-23T05:44:54.106Z,9.73
2019-05-23T05:49:57.564Z,14.07
2019-05-23T05:55:01.149Z,10.70
2019-05-23T06:00:12.649Z,8.27
2019-05-23T06:05:20.968Z,8.83
2019-05-23T06:10:24.692Z,11.13
2019-05-23T06:15:27.665Z,9.80
2019-05-23T06:20:30.518Z,9.67
2019-05-23T06:25:33.907Z,8.37
2019-05-23T06:30:39.378Z,8.23
2019-05-23T06:35:42.977Z,11.50
2019-05-23T06:40:46.017Z,7.63
2019-05-23T06:45:49.400Z,10.03
2019-05-23T06:50:51.814Z,8.23
2019-05-23T06:55:54.064Z,10.53
2019-05-23T07:00:56.581Z,7.83
2019-05-23T07:05:59.550Z,10.37
2019-05-23T07:11:02.074Z,6.90
2019-05-23T07:16:04.840Z,5.10
2019-05-23T07:21:09.572Z,5.27
2019-05-23T07:26:12.939Z,4.87
2019-05-23T07:31:16.353Z,6.60
2019-05-23T07:36:20.364Z,11.10
2019-05-23T07:41:23.080Z,7.23
2019-05-23T07:46:27.008Z,3.20
2019-05-23T07:51:29.954Z,2.87
2019-05-23T07:56:36.386Z,5.00
2019-05-23T08:01:43.478Z,4.30
2019-05-23T08:06:49.038Z,3.20
2019-05-23T08:11:50.566Z,6.13
2019-05-23T08:16:53.110Z,5.03
2019-05-23T08:21:55.770Z,3.83
2019-05-23T08:26:58.906Z,8.20
2019-05-23T08:32:02.056Z,12.80
2019-05-23T08:37:07.355Z,7.50
2019-05-23T08:42:11.925Z,3.63
2019-05-23T08:47:14.877Z,5.47
2019-05-23T08:52:17.480Z,3.33
2019-05-23T08:57:21.597Z,4.20
2019-05-23T09:02:25.305Z,2.60
2019-05-23T09:07:27.802Z,2.93
2019-05-23T09:12:31.339Z,2.23
2019-05-23T09:17:51.364Z,4.57
2019-05-23T09:22:39.205Z,5.87
2019-05-23T09:27:42.060Z,6.37
2019-05-23T09:32:45.044Z,3.43
2019-05-23T09:37:47.539Z,5.13
2019-05-23T09:42:50.408Z,4.90
2019-05-23T09:47:54.784Z,2.30
2019-05-23T09:52:57.189Z,3.37
2019-05-23T09:57:59.621Z,5.53
2019-05-23T10:03:02.486Z,5.30
2019-05-23T10:08:05.097Z,3.33
2019-05-23T10:13:07.261Z,3.30
2019-05-23T10:18:15.511Z,6.83
2019-05-23T10:23:18.472Z,3.23
2019-05-23T10:28:21.728Z,2.90
2019-05-23T10:33:24.179Z,3.20
2019-05-23T10:38:29.448Z,4.50
2019-05-23T10:43:31.456Z,2.90
2019-05-23T10:48:35.935Z,2.30
2019-05-23T10:53:39.718Z,5.10
2019-05-23T10:58:42.374Z,2.87
2019-05-23T11:03:45.628Z,2.43
2019-05-23T11:08:48.427Z,5.83
2019-05-23T11:13:51.437Z,3.23
2019-05-23T11:18:54.993Z,3.23
2019-05-23T11:23:58.458Z,4.30
2019-05-23T11:29:01.338Z,8.03
2019-05-23T11:34:04.560Z,8.43
2019-05-23T11:39:08.335Z,3.63
2019-05-23T11:44:10.494Z,3.17
2019-05-23T11:49:14.081Z,3.40
2019-05-23T11:54:16.608Z,4.30
2019-05-23T11:59:19.382Z,3.87
2019-05-23T12:04:24.670Z,4.67
2019-05-23T12:09:28.720Z,3.67
2019-05-23T12:14:31.450Z,7.47
2019-05-23T12:19:34.701Z,5.90
2019-05-23T12:24:38.215Z,4.83
2019-05-23T12:29:41.243Z,3.30
2019-05-23T12:34:44.219Z,2.77
2019-05-23T12:39:46.882Z,3.30
2019-05-23T12:44:49.102Z,6.20
2019-05-23T12:49:58.070Z,4.37
2019-05-23T12:55:00.473Z,5.07
2019-05-23T13:00:06.212Z,2.97
2019-05-23T13:05:10.855Z,4.10
2019-05-23T13:10:14.252Z,3.77
2019-05-23T13:15:16.830Z,1.93
2019-05-23T13:20:19.992Z,3.20
2019-05-23T13:25:23.033Z,3.80
2019-05-23T13:30:26.434Z,3.00
2019-05-23T13:35:29.782Z,4.80
2019-05-23T13:40:32.882Z,5.90
2019-05-23T13:45:36.212Z,2.17
2019-05-23T13:50:39.395Z,5.87
2019-05-23T13:55:42.160Z,3.27
2019-05-23T14:00:45.967Z,4.90
2019-05-23T14:05:49.110Z,1.77
2019-05-23T14:10:51.890Z,3.10
2019-05-23T14:15:55.200Z,2.70
2019-05-23T14:20:57.942Z,2.53
2019-05-23T14:26:00.736Z,2.60
2019-05-23T14:31:07.652Z,2.10
2019-05-23T14:36:17.060Z,3.17
2019-05-23T14:41:20.590Z,4.50
2019-05-23T14:46:26.026Z,3.37
2019-05-23T14:51:39.305Z,2.27
2019-05-23T14:56:42.815Z,2.87
2019-05-23T15:01:46.077Z,2.33
2019-05-23T15:06:48.542Z,1.77
2019-05-23T15:11:51.148Z,2.20
2019-05-23T15:16:53.604Z,2.23
2019-05-23T15:21:56.068Z,5.97
2019-05-23T15:26:58.766Z,3.23
2019-05-23T15:32:03.092Z,2.00
2019-05-23T15:37:05.541Z,1.90
2019-05-23T15:42:08.315Z,4.40
2019-05-23T15:47:11.326Z,2.00
2019-05-23T15:52:46.625Z,3.30
2019-05-23T15:57:57.565Z,2.57
2019-05-23T16:03:07.814Z,2.60
2019-05-23T16:08:10.510Z,1.63
2019-05-23T16:13:13.243Z,2.83
2019-05-23T16:18:16.547Z,1.90
2019-05-23T16:23:31.858Z,2.67
2019-05-23T16:28:34.195Z,4.17
2019-05-23T16:33:36.858Z,2.03
2019-05-23T16:38:39.432Z,1.80
2019-05-23T16:43:42.359Z,5.73
2019-05-23T16:48:45.095Z,3.37
2019-05-23T16:53:48.729Z,3.37
2019-05-23T16:59:03.760Z,2.43
2019-05-23T17:04:22.144Z,2.70
2019-05-23T17:09:42.779Z,2.10
2019-05-23T17:14:52.007Z,5.80
2019-05-23T17:20:19.442Z,1.93
2019-05-23T17:25:25.127Z,4.50
2019-05-23T17:30:34.805Z,2.17
2019-05-23T17:35:37.415Z,3.83
2019-05-23T17:40:40.018Z,3.90
2019-05-23T17:45:43.189Z,3.73
2019-05-23T17:50:46.192Z,5.23
2019-05-23T17:55:50.596Z,3.97
2019-05-23T18:00:54.200Z,2.27
2019-05-23T18:05:56.806Z,3.23
2019-05-23T18:10:59.327Z,2.83
2019-05-23T18:16:02.383Z,3.73
2019-05-23T18:21:05.769Z,4.13
2019-05-23T18:26:09.430Z,3.27
2019-05-23T18:31:16.631Z,1.97
2019-05-23T18:36:19.964Z,2.27
2019-05-23T18:41:22.935Z,1.77
2019-05-23T18:46:30.927Z,4.60
2019-05-23T18:51:33.844Z,2.53
2019-05-23T18:56:36.822Z,3.53
2019-05-23T19:01:39.992Z,4.30
2019-05-23T19:06:43.721Z,2.63
2019-05-23T19:11:46.844Z,4.87
2019-05-23T19:16:50.523Z,2.77
2019-05-23T19:21:53.439Z,3.33
2019-05-23T19:26:55.856Z,3.27
2019-05-23T19:32:00.062Z,4.13
2019-05-23T19:37:03.834Z,3.30
2019-05-23T19:42:07.871Z,4.47
2019-05-23T19:47:10.414Z,6.67
2019-05-23T19:52:13.626Z,3.13
2019-05-23T19:57:17.065Z,4.07
2019-05-23T20:02:51.206Z,8.50
2019-05-23T20:07:54.431Z,5.10
2019-05-23T20:12:58.289Z,4.60
2019-05-23T20:18:00.679Z,5.63
2019-05-23T20:23:03.611Z,6.60
2019-05-23T20:28:06.804Z,4.00
2019-05-23T20:33:09.228Z,4.23
2019-05-23T20:38:11.708Z,7.43
2019-05-23T20:43:14.292Z,11.03
2019-05-23T20:48:17.181Z,6.43
2019-05-23T20:53:19.931Z,6.57
2019-05-23T20:58:22.467Z,8.87
2019-05-23T21:03:28.337Z,9.37
2019-05-23T21:08:31.511Z,6.43
2019-05-23T21:13:33.896Z,5.80
2019-05-23T21:18:37.442Z,5.10
2019-05-23T21:23:39.828Z,6.53
2019-05-23T21:28:42.659Z,6.37
2019-05-23T21:33:45.147Z,6.03
2019-05-23T21:38:47.686Z,8.47
2019-05-23T21:43:51.847Z,13.33
2019-05-23T21:48:54.261Z,9.03
2019-05-23T21:53:57.379Z,10.60
2019-05-23T21:58:59.795Z,8.90
2019-05-23T22:04:24.433Z,9.50
2019-05-23T22:09:27.425Z,9.17
2019-05-23T22:14:29.925Z,8.17
2019-05-23T22:19:34.973Z,9.90
2019-05-23T22:24:37.546Z,9.93
2019-05-23T22:29:40.573Z,8.67
2019-05-23T22:34:48.592Z,7.43
2019-05-23T22:39:50.833Z,7.83
2019-05-23T22:44:54.410Z,13.70
2019-05-23T22:49:56.676Z,7.90
2019-05-23T22:54:59.539Z,10.57
2019-05-23T23:00:02.489Z,8.00
2019-05-23T23:05:05.373Z,8.93
2019-05-23T23:10:09.232Z,9.27
2019-05-23T23:15:12.319Z,8.73
2019-05-23T23:20:14.993Z,8.47
2019-05-23T23:25:17.384Z,8.17
2019-05-23T23:30:23.739Z,8.67
2019-05-23T23:35:26.311Z,7.67
2019-05-23T23:40:29.051Z,9.00
2019-05-23T23:45:50.192Z,19.47
2019-05-23T23:51:10.940Z,11.53
2019-05-23T23:56:32.073Z,9.20
